Time;durP1;ratioP1;P1;durP2;ratioP2;P2;SDS_P1;SDS_P2;PMS_P1;PMS_P2;Temp;Humidity;BMP_temperature;BMP_pressure;BME280_temperature;BME280_humidity;BME280_pressure;Samples;Min_cycle;Max_cycle;Signal;HPM_P1;HPM_P2
2022/04/23 00:00:12;;;;;;;0.68;0.30;;;;;;;;;;1798917;79;26283;-55
2022/04/23 00:02:41;;;;;;;0.30;0.25;;;;;;;;;;1801442;79;26831;-55
2022/04/23 00:05:10;;;;;;;1.65;0.20;;;;;;;;;;1805610;79;26290;-54
2022/04/23 00:07:37;;;;;;;1.40;0.28;;;;;;;;;;1805396;79;26334;-55
2022/04/23 00:10:05;;;;;;;0.20;0.20;;;;;;;;;;1802688;79;26355;-56
2022/04/23 00:12:32;;;;;;;1.22;0.20;;;;;;;;;;1806805;78;26760;-55
2022/04/23 00:15:00;;;;;;;0.30;0.30;;;;;;;;;;1803958;78;26853;-54
2022/04/23 00:17:28;;;;;;;0.23;0.23;;;;;;;;;;1803868;78;26364;-54
2022/04/23 00:19:55;;;;;;;0.10;0.10;;;;;;;;;;1804006;79;26783;-53
2022/04/23 00:22:22;;;;;;;0.72;0.20;;;;;;;;;;1805130;79;26739;-56
2022/04/23 00:24:50;;;;;;;0.30;0.30;;;;;;;;;;1804849;78;26395;-56
2022/04/23 00:27:17;;;;;;;0.25;0.25;;;;;;;;;;1803688;78;26372;-53
2022/04/23 00:29:44;;;;;;;0.23;0.23;;;;;;;;;;1803544;79;26416;-54
2022/04/23 00:32:12;;;;;;;1.75;0.20;;;;;;;;;;1805114;78;26255;-56
2022/04/23 00:34:39;;;;;;;0.23;0.23;;;;;;;;;;1805252;78;26267;-52
2022/04/23 00:37:06;;;;;;;0.70;0.20;;;;;;;;;;1806076;79;26784;-53
2022/04/23 00:39:33;;;;;;;0.23;0.20;;;;;;;;;;1805769;79;26291;-51
2022/04/23 00:42:03;;;;;;;2.22;0.30;;;;;;;;;;1805535;79;26292;-56
2022/04/23 00:44:30;;;;;;;0.20;0.20;;;;;;;;;;1805023;79;26818;-56
2022/04/23 00:46:57;;;;;;;0.30;0.30;;;;;;;;;;1818002;78;26847;-55
2022/04/23 00:49:24;;;;;;;0.28;0.28;;;;;;;;;;1813625;79;26765;-55
2022/04/23 00:51:52;;;;;;;0.20;0.20;;;;;;;;;;1793507;79;26301;-56
2022/04/23 00:54:22;;;;;;;1.85;0.30;;;;;;;;;;1775470;81;26310;-56
2022/04/23 00:56:49;;;;;;;0.20;0.20;;;;;;;;;;1800427;78;26267;-52
2022/04/23 00:59:16;;;;;;;0.40;0.20;;;;;;;;;;1805733;79;26235;-54
2022/04/23 01:01:43;;;;;;;1.17;0.20;;;;;;;;;;1805791;79;26224;-53
2022/04/23 01:04:12;;;;;;;2.55;0.30;;;;;;;;;;1805676;79;26272;-53
2022/04/23 01:06:40;;;;;;;1.10;0.40;;;;;;;;;;1799597;79;26307;-49
2022/04/23 01:09:09;;;;;;;2.00;0.20;;;;;;;;;;1816956;78;26338;-55
2022/04/23 01:11:37;;;;;;;0.30;0.30;;;;;;;;;;1805580;79;26793;-50
2022/04/23 01:14:05;;;;;;;1.25;0.20;;;;;;;;;;1805801;79;26990;-55
2022/04/23 01:16:33;;;;;;;0.80;0.17;;;;;;;;;;1784461;79;26860;-51
2022/04/23 01:19:00;;;;;;;0.30;0.30;;;;;;;;;;1802960;78;26318;-55
2022/04/23 01:21:28;;;;;;;0.10;0.10;;;;;;;;;;1805321;78;26223;-51
2022/04/23 01:23:57;;;;;;;1.82;0.20;;;;;;;;;;1805836;79;26356;-55
2022/04/23 01:26:26;;;;;;;0.20;0.20;;;;;;;;;;1805289;79;26348;-55
2022/04/23 01:28:54;;;;;;;0.60;0.20;;;;;;;;;;1800538;79;26817;-51
2022/04/23 01:31:22;;;;;;;0.30;0.30;;;;;;;;;;1803305;78;26592;-55
2022/04/23 01:33:49;;;;;;;0.42;0.20;;;;;;;;;;1805853;79;26301;-54
2022/04/23 01:36:17;;;;;;;0.13;0.10;;;;;;;;;;1806803;79;27236;-57
2022/04/23 01:38:44;;;;;;;0.30;0.30;;;;;;;;;;1831029;78;26345;-56
2022/04/23 01:41:12;;;;;;;0.03;0.03;;;;;;;;;;1804112;79;26250;-56
2022/04/23 01:43:40;;;;;;;0.75;0.20;;;;;;;;;;1834231;78;26383;-57
2022/04/23 01:46:07;;;;;;;0.20;0.20;;;;;;;;;;1801110;78;26675;-56
2022/04/23 01:48:34;;;;;;;0.10;0.10;;;;;;;;;;1800960;79;26316;-55
2022/04/23 01:51:02;;;;;;;0.10;0.10;;;;;;;;;;1793800;78;26832;-56
2022/04/23 01:53:29;;;;;;;0.45;0.20;;;;;;;;;;1804989;78;27465;-57
2022/04/23 01:55:57;;;;;;;0.10;0.10;;;;;;;;;;1804978;79;26295;-53
2022/04/23 01:58:25;;;;;;;0.98;0.30;;;;;;;;;;1803688;79;26379;-56
2022/04/23 02:00:53;;;;;;;0.08;0.08;;;;;;;;;;1807140;79;26364;-55
2022/04/23 02:03:22;;;;;;;0.10;0.10;;;;;;;;;;1807107;79;26322;-55
2022/04/23 02:05:50;;;;;;;0.10;0.10;;;;;;;;;;1806815;78;26613;-52
2022/04/23 02:08:18;;;;;;;0.10;0.10;;;;;;;;;;1804570;79;26301;-56
2022/04/23 02:10:47;;;;;;;0.10;0.10;;;;;;;;;;1787960;79;26662;-52
2022/04/23 02:13:14;;;;;;;1.22;0.13;;;;;;;;;;1777849;80;26914;-56
2022/04/23 02:15:42;;;;;;;0.10;0.10;;;;;;;;;;1791404;78;26764;-53
2022/04/23 02:18:10;;;;;;;0.13;0.13;;;;;;;;;;1809817;78;26380;-56
2022/04/23 02:20:38;;;;;;;0.10;0.05;;;;;;;;;;1806829;79;26317;-53
2022/04/23 02:23:06;;;;;;;0.03;0.03;;;;;;;;;;1806298;78;26326;-56
2022/04/23 02:25:37;;;;;;;0.10;0.10;;;;;;;;;;1803866;78;26793;-55
2022/04/23 02:28:02;;;;;;;0.15;0.15;;;;;;;;;;1812428;78;26317;-55
2022/04/23 02:30:31;;;;;;;0.10;0.10;;;;;;;;;;1782059;78;26247;-56
2022/04/23 02:32:59;;;;;;;0.10;0.10;;;;;;;;;;1798225;78;26322;-54
2022/04/23 02:35:26;;;;;;;0.55;0.20;;;;;;;;;;1805887;79;26252;-55
2022/04/23 02:37:56;;;;;;;0.10;0.10;;;;;;;;;;1805618;78;26315;-57
2022/04/23 02:40:23;;;;;;;0.53;0.20;;;;;;;;;;1794186;79;26381;-55
2022/04/23 02:42:51;;;;;;;0.35;0.10;;;;;;;;;;1799700;78;26291;-54
2022/04/23 02:45:21;;;;;;;0.00;0.00;;;;;;;;;;1798948;79;26657;-52
2022/04/23 02:47:55;;;;;;;0.10;0.10;;;;;;;;;;1785008;79;26307;-57
2022/04/23 02:50:29;;;;;;;0.13;0.13;;;;;;;;;;1803228;78;27359;-52
2022/04/23 02:52:57;;;;;;;0.10;0.10;;;;;;;;;;1805792;79;26335;-55
2022/04/23 02:55:25;;;;;;;0.17;0.17;;;;;;;;;;1797921;79;26443;-54
2022/04/23 02:57:53;;;;;;;0.10;0.10;;;;;;;;;;1776835;79;26577;-53
2022/04/23 03:00:20;;;;;;;0.10;0.10;;;;;;;;;;1784846;78;26326;-57
2022/04/23 03:02:48;;;;;;;0.10;0.10;;;;;;;;;;1798783;79;26774;-56
2022/04/23 03:05:15;;;;;;;0.20;0.20;;;;;;;;;;1805185;79;26848;-55
2022/04/23 03:07:43;;;;;;;0.10;0.10;;;;;;;;;;1805459;79;26384;-55
2022/04/23 03:10:11;;;;;;;0.03;0.03;;;;;;;;;;1794737;79;27452;-57
2022/04/23 03:12:39;;;;;;;0.10;0.10;;;;;;;;;;1802640;78;26721;-51
2022/04/23 03:15:07;;;;;;;0.10;0.10;;;;;;;;;;1814317;79;26297;-52
2022/04/23 03:17:35;;;;;;;0.68;0.10;;;;;;;;;;1776606;81;26698;-53
2022/04/23 03:20:04;;;;;;;0.00;0.00;;;;;;;;;;1776040;81;26330;-53
2022/04/23 03:22:31;;;;;;;0.10;0.10;;;;;;;;;;1791632;79;26294;-56
2022/04/23 03:24:58;;;;;;;0.20;0.20;;;;;;;;;;1804852;78;26376;-56
2022/04/23 03:27:26;;;;;;;0.28;0.10;;;;;;;;;;1792009;79;26743;-56
2022/04/23 03:29:53;;;;;;;0.20;0.20;;;;;;;;;;1790473;80;26280;-53
2022/04/23 03:32:21;;;;;;;0.10;0.10;;;;;;;;;;1803984;79;26307;-53
2022/04/23 03:34:49;;;;;;;0.10;0.10;;;;;;;;;;1815425;78;26641;-54
2022/04/23 03:37:16;;;;;;;0.20;0.20;;;;;;;;;;1830693;78;26288;-56
2022/04/23 03:39:49;;;;;;;0.15;0.15;;;;;;;;;;1830773;78;26815;-56
2022/04/23 03:42:13;;;;;;;0.20;0.20;;;;;;;;;;1808761;78;26299;-53
2022/04/23 03:44:40;;;;;;;0.10;0.10;;;;;;;;;;1796819;79;26284;-57
2022/04/23 03:47:07;;;;;;;0.10;0.10;;;;;;;;;;1804760;78;26275;-54
2022/04/23 03:49:35;;;;;;;0.20;0.20;;;;;;;;;;1803727;79;26333;-56
2022/04/23 03:52:02;;;;;;;0.00;0.00;;;;;;;;;;1801180;78;26299;-54
2022/04/23 03:54:29;;;;;;;0.25;0.25;;;;;;;;;;1806247;78;26356;-55
2022/04/23 03:56:56;;;;;;;1.40;0.20;;;;;;;;;;1799544;78;26373;-53
2022/04/23 03:59:24;;;;;;;0.55;0.10;;;;;;;;;;1804706;79;26287;-55
2022/04/23 04:01:55;;;;;;;0.30;0.30;;;;;;;;;;1801920;79;26342;-54
2022/04/23 04:04:23;;;;;;;0.90;0.20;;;;;;;;;;1804360;79;26394;-57
2022/04/23 04:06:51;;;;;;;0.47;0.20;;;;;;;;;;1803415;79;26287;-56
2022/04/23 04:09:19;;;;;;;0.98;0.20;;;;;;;;;;1803265;78;26347;-55
2022/04/23 04:12:01;;;;;;;0.42;0.37;;;;;;;;;;1776355;79;27011;-56
2022/04/23 04:14:30;;;;;;;0.20;0.20;;;;;;;;;;1776903;81;26332;-56
2022/04/23 04:17:00;;;;;;;0.30;0.30;;;;;;;;;;1776725;78;26305;-56
2022/04/23 04:19:32;;;;;;;0.20;0.20;;;;;;;;;;1792349;78;26333;-58
2022/04/23 04:22:02;;;;;;;0.35;0.35;;;;;;;;;;1793958;79;26307;-57
2022/04/23 04:24:29;;;;;;;0.55;0.40;;;;;;;;;;1805230;79;26325;-56
2022/04/23 04:26:57;;;;;;;0.72;0.40;;;;;;;;;;1791343;79;26304;-55
2022/04/23 04:29:28;;;;;;;0.33;0.33;;;;;;;;;;1805181;78;26683;-55
2022/04/23 04:31:55;;;;;;;0.55;0.30;;;;;;;;;;1805586;79;26344;-54
2022/04/23 04:34:24;;;;;;;0.85;0.50;;;;;;;;;;1802418;78;26718;-55
2022/04/23 04:36:52;;;;;;;1.27;0.40;;;;;;;;;;1806901;78;26306;-57
2022/04/23 04:39:20;;;;;;;1.35;0.50;;;;;;;;;;1811750;78;26820;-58
2022/04/23 04:41:47;;;;;;;0.85;0.60;;;;;;;;;;1805644;79;26352;-53
2022/04/23 04:44:14;;;;;;;1.52;0.78;;;;;;;;;;1805715;79;26351;-52
2022/04/23 04:46:42;;;;;;;1.85;0.80;;;;;;;;;;1805912;78;26282;-57
2022/04/23 04:49:09;;;;;;;7.08;0.75;;;;;;;;;;1806010;78;26293;-56
2022/04/23 04:51:36;;;;;;;2.95;0.70;;;;;;;;;;1805913;79;26560;-53
2022/04/23 04:54:04;;;;;;;2.70;0.55;;;;;;;;;;1802266;79;26364;-54
2022/04/23 04:56:32;;;;;;;3.55;1.55;;;;;;;;;;1805073;79;26289;-57
2022/04/23 04:59:01;;;;;;;1.50;0.75;;;;;;;;;;1805951;78;26305;-55
2022/04/23 05:01:29;;;;;;;2.15;0.60;;;;;;;;;;1801304;79;26344;-57
2022/04/23 05:03:56;;;;;;;0.80;0.70;;;;;;;;;;1803742;79;26318;-57
2022/04/23 05:06:24;;;;;;;1.85;0.78;;;;;;;;;;1804679;79;26338;-57
2022/04/23 05:08:51;;;;;;;1.95;0.60;;;;;;;;;;1805253;78;26738;-57
2022/04/23 05:11:19;;;;;;;2.40;0.57;;;;;;;;;;1801059;78;26825;-57
2022/04/23 05:13:46;;;;;;;1.17;0.60;;;;;;;;;;1801532;79;26805;-53
2022/04/23 05:16:13;;;;;;;0.78;0.50;;;;;;;;;;1802655;79;27415;-53
2022/04/23 05:18:41;;;;;;;1.45;0.60;;;;;;;;;;1805530;78;26372;-57
2022/04/23 05:21:08;;;;;;;1.20;0.50;;;;;;;;;;1810237;78;26281;-53
2022/04/23 05:23:36;;;;;;;1.05;0.60;;;;;;;;;;1805589;78;26263;-55
2022/04/23 05:26:03;;;;;;;1.87;0.40;;;;;;;;;;1804902;79;26687;-57
2022/04/23 05:28:31;;;;;;;1.12;0.60;;;;;;;;;;1804334;79;26912;-55
2022/04/23 05:30:59;;;;;;;1.12;0.70;;;;;;;;;;1802958;78;26292;-54
2022/04/23 05:33:26;;;;;;;0.95;0.60;;;;;;;;;;1802746;79;26719;-55
2022/04/23 05:35:53;;;;;;;0.50;0.50;;;;;;;;;;1797506;78;26346;-55
2022/04/23 05:38:21;;;;;;;0.88;0.40;;;;;;;;;;1806969;78;26283;-56
2022/04/23 05:40:49;;;;;;;0.30;0.30;;;;;;;;;;1804947;79;26302;-55
2022/04/23 05:43:17;;;;;;;0.70;0.60;;;;;;;;;;1803596;78;26290;-54
2022/04/23 05:45:45;;;;;;;1.00;0.40;;;;;;;;;;1798467;79;26349;-57
2022/04/23 05:48:12;;;;;;;1.77;0.40;;;;;;;;;;1803916;79;26356;-51
2022/04/23 05:50:39;;;;;;;0.40;0.40;;;;;;;;;;1803741;79;26295;-57
2022/04/23 05:53:07;;;;;;;1.72;0.60;;;;;;;;;;1799464;78;26365;-57
2022/04/23 05:55:35;;;;;;;0.57;0.47;;;;;;;;;;1801604;78;26346;-56
2022/04/23 05:58:03;;;;;;;0.47;0.40;;;;;;;;;;1801222;79;26307;-56
2022/04/23 06:00:30;;;;;;;0.30;0.30;;;;;;;;;;1800211;79;26291;-56
2022/04/23 06:02:57;;;;;;;0.75;0.42;;;;;;;;;;1804922;79;26801;-54
2022/04/23 06:05:24;;;;;;;0.82;0.40;;;;;;;;;;1808336;78;26377;-52
2022/04/23 06:07:52;;;;;;;1.17;0.50;;;;;;;;;;1803921;79;26271;-57
2022/04/23 06:10:19;;;;;;;1.40;0.40;;;;;;;;;;1804553;79;26969;-56
2022/04/23 06:12:46;;;;;;;0.30;0.30;;;;;;;;;;1804627;79;26810;-56
2022/04/23 06:15:14;;;;;;;1.67;0.37;;;;;;;;;;1799221;79;26716;-54
2022/04/23 06:17:41;;;;;;;0.60;0.53;;;;;;;;;;1803696;78;26750;-57
2022/04/23 06:20:09;;;;;;;0.57;0.55;;;;;;;;;;1802636;79;26314;-54
2022/04/23 06:22:36;;;;;;;0.40;0.40;;;;;;;;;;1804495;79;26349;-56
2022/04/23 06:25:04;;;;;;;2.58;0.60;;;;;;;;;;1803631;79;26311;-56
2022/04/23 06:27:32;;;;;;;3.92;0.50;;;;;;;;;;1801915;78;26294;-54
2022/04/23 06:29:59;;;;;;;2.67;0.53;;;;;;;;;;1803828;79;26704;-57
2022/04/23 06:32:27;;;;;;;2.35;0.50;;;;;;;;;;1801107;78;26385;-54
2022/04/23 06:34:54;;;;;;;10.82;0.80;;;;;;;;;;1802645;79;26751;-56
2022/04/23 06:37:22;;;;;;;0.80;0.55;;;;;;;;;;1802317;79;26897;-54
2022/04/23 06:39:50;;;;;;;1.90;0.65;;;;;;;;;;1802872;78;26399;-57
2022/04/23 06:42:18;;;;;;;2.40;0.60;;;;;;;;;;1803674;79;26296;-58
2022/04/23 06:44:45;;;;;;;1.20;0.60;;;;;;;;;;1804021;79;26330;-57
2022/04/23 06:47:14;;;;;;;1.57;0.50;;;;;;;;;;1800546;79;26802;-56
2022/04/23 06:49:41;;;;;;;2.35;0.65;;;;;;;;;;1804131;78;26972;-55
2022/04/23 06:52:08;;;;;;;1.05;0.60;;;;;;;;;;1804278;79;26377;-54
2022/04/23 06:54:36;;;;;;;2.02;1.00;;;;;;;;;;1804363;79;26286;-53
2022/04/23 06:57:04;;;;;;;2.80;2.08;;;;;;;;;;1802729;79;26290;-57
2022/04/23 06:59:33;;;;;;;3.58;1.87;;;;;;;;;;1781616;79;27393;-58
2022/04/23 07:02:02;;;;;;;7.53;2.40;;;;;;;;;;1789683;78;26374;-54
2022/04/23 07:04:30;;;;;;;4.03;2.55;;;;;;;;;;1804297;79;26342;-55
2022/04/23 07:06:58;;;;;;;4.67;2.65;;;;;;;;;;1804355;79;26388;-52
2022/04/23 07:09:25;;;;;;;4.30;2.70;;;;;;;;;;1804549;79;26306;-53
2022/04/23 07:11:52;;;;;;;4.10;3.02;;;;;;;;;;1814795;78;26317;-52
2022/04/23 07:14:20;;;;;;;3.83;2.95;;;;;;;;;;1829358;78;26293;-51
2022/04/23 07:16:48;;;;;;;7.33;2.83;;;;;;;;;;1783930;78;26765;-56
2022/04/23 07:19:16;;;;;;;6.08;3.00;;;;;;;;;;1774880;81;26940;-52
2022/04/23 07:21:43;;;;;;;3.30;2.80;;;;;;;;;;1786907;79;26279;-52
2022/04/23 07:24:11;;;;;;;3.83;2.98;;;;;;;;;;1803128;78;26275;-51
2022/04/23 07:26:39;;;;;;;4.67;2.83;;;;;;;;;;1792882;79;26368;-53
2022/04/23 07:29:07;;;;;;;6.97;3.00;;;;;;;;;;1805684;79;26294;-50
2022/04/23 07:31:36;;;;;;;5.33;3.00;;;;;;;;;;1788969;78;26823;-52
2022/04/23 07:39:36;;;;;;;4.10;2.42;;;;;;;;;;1809123;78;26278;-57
2022/04/23 07:42:05;;;;;;;5.00;2.80;;;;;;;;;;1791772;79;26352;-54
2022/04/23 07:44:33;;;;;;;2.95;2.50;;;;;;;;;;1805270;79;26325;-53
2022/04/23 07:47:00;;;;;;;2.85;2.58;;;;;;;;;;1799891;78;26738;-52
2022/04/23 07:49:27;;;;;;;3.80;2.55;;;;;;;;;;1805395;79;26290;-55
2022/04/23 07:51:55;;;;;;;3.33;2.30;;;;;;;;;;1805454;78;26704;-55
2022/04/23 07:54:23;;;;;;;3.42;2.25;;;;;;;;;;1806662;78;26314;-55
2022/04/23 07:56:50;;;;;;;3.72;2.12;;;;;;;;;;1798186;78;26966;-57
2022/04/23 07:59:17;;;;;;;2.50;2.02;;;;;;;;;;1795657;78;26723;-55
2022/04/23 08:01:45;;;;;;;2.12;1.92;;;;;;;;;;1811328;78;26368;-50
2022/04/23 08:04:12;;;;;;;2.17;1.90;;;;;;;;;;1807683;78;26278;-49
2022/04/23 08:06:39;;;;;;;2.85;2.10;;;;;;;;;;1802294;79;26304;-52
2022/04/23 08:09:06;;;;;;;2.10;1.90;;;;;;;;;;1830800;78;26260;-47
2022/04/23 08:11:34;;;;;;;2.20;2.10;;;;;;;;;;1802842;78;26241;-55
2022/04/23 08:14:03;;;;;;;2.25;1.70;;;;;;;;;;1806634;79;27717;-48
2022/04/23 08:16:30;;;;;;;2.62;1.75;;;;;;;;;;1787041;78;26312;-55
2022/04/23 08:18:57;;;;;;;3.83;1.75;;;;;;;;;;1827101;77;26284;-52
2022/04/23 08:21:24;;;;;;;3.12;1.55;;;;;;;;;;1797807;79;26357;-51
2022/04/23 08:23:52;;;;;;;3.85;1.90;;;;;;;;;;1796669;80;26298;-55
2022/04/23 08:26:19;;;;;;;3.30;1.67;;;;;;;;;;1781481;79;26376;-46
2022/04/23 08:31:31;;;;;;;3.75;1.60;;;;;;;;;;1790614;80;26953;-53
2022/04/23 08:33:59;;;;;;;1.70;1.60;;;;;;;;;;1790532;80;26308;-52
2022/04/23 08:36:30;;;;;;;2.05;1.70;;;;;;;;;;1794676;78;26321;-53
2022/04/23 08:38:58;;;;;;;2.15;1.37;;;;;;;;;;1793146;80;25748;-51
2022/04/23 08:41:30;;;;;;;6.08;1.60;;;;;;;;;;1796874;78;26282;-49
2022/04/23 08:43:59;;;;;;;2.90;1.70;;;;;;;;;;1798686;80;26761;-49
2022/04/23 08:46:26;;;;;;;1.70;1.50;;;;;;;;;;1792101;79;26306;-49
2022/04/23 08:48:55;;;;;;;1.52;1.42;;;;;;;;;;1798832;80;26332;-50
2022/04/23 08:51:23;;;;;;;1.50;1.40;;;;;;;;;;1798390;79;26290;-49
2022/04/23 08:53:52;;;;;;;1.77;1.50;;;;;;;;;;1797856;80;26654;-47
2022/04/23 08:56:19;;;;;;;1.42;1.32;;;;;;;;;;1783253;79;26789;-50
2022/04/23 08:58:47;;;;;;;1.25;1.20;;;;;;;;;;1798373;80;26718;-53
2022/04/23 09:01:14;;;;;;;1.60;1.10;;;;;;;;;;1783955;80;26702;-51
2022/04/23 09:03:41;;;;;;;1.50;1.40;;;;;;;;;;1798617;78;26838;-48
2022/04/23 09:06:09;;;;;;;1.20;1.10;;;;;;;;;;1798820;79;26741;-51
2022/04/23 09:08:36;;;;;;;3.95;1.27;;;;;;;;;;1795468;80;26718;-53
2022/04/23 09:11:03;;;;;;;1.98;1.10;;;;;;;;;;1790112;78;27369;-57
2022/04/23 09:13:31;;;;;;;2.30;1.17;;;;;;;;;;1790802;78;26299;-50
2022/04/23 09:24:41;;;;;;;1.50;1.00;;;;;;;;;;1799920;78;26727;-51
2022/04/23 09:27:09;;;;;;;5.45;1.17;;;;;;;;;;1798052;79;26686;-53
2022/04/23 09:29:36;;;;;;;0.90;0.90;;;;;;;;;;1798562;78;26297;-57
2022/04/23 09:32:11;;;;;;;1.00;1.00;;;;;;;;;;1797627;78;26307;-48
2022/04/23 09:34:39;;;;;;;2.08;0.90;;;;;;;;;;1799549;78;25639;-52
2022/04/23 09:37:08;;;;;;;1.00;1.00;;;;;;;;;;1799095;78;26337;-56
2022/04/23 09:39:38;;;;;;;0.88;0.88;;;;;;;;;;1804322;78;26293;-56
2022/04/23 09:42:13;;;;;;;0.98;0.98;;;;;;;;;;1800523;79;26306;-55
2022/04/23 09:44:41;;;;;;;1.35;0.88;;;;;;;;;;1801771;79;26700;-56
2022/04/23 09:47:09;;;;;;;1.85;0.98;;;;;;;;;;1800333;78;26743;-52
2022/04/23 09:49:38;;;;;;;1.05;0.90;;;;;;;;;;1794679;78;26295;-55
2022/04/23 09:52:09;;;;;;;0.93;0.93;;;;;;;;;;1800961;78;26310;-51
2022/04/23 09:54:39;;;;;;;1.00;1.00;;;;;;;;;;1803727;79;26346;-54
2022/04/23 09:57:06;;;;;;;0.70;0.70;;;;;;;;;;1801688;78;26291;-52
2022/04/23 09:59:34;;;;;;;0.98;0.98;;;;;;;;;;1800353;79;26763;-53
2022/04/23 10:02:02;;;;;;;0.80;0.80;;;;;;;;;;1801156;79;26298;-52
2022/04/23 10:04:30;;;;;;;0.90;0.90;;;;;;;;;;1802438;79;26740;-56
2022/04/23 10:06:59;;;;;;;1.05;0.80;;;;;;;;;;1802451;79;26976;-52
2022/04/23 10:09:27;;;;;;;1.82;0.82;;;;;;;;;;1800992;78;26420;-52
2022/04/23 10:12:06;;;;;;;1.05;0.90;;;;;;;;;;1802901;79;26794;-47
2022/04/23 10:14:35;;;;;;;1.47;0.93;;;;;;;;;;1795718;78;26275;-52
2022/04/23 10:17:04;;;;;;;0.90;0.80;;;;;;;;;;1775338;79;26774;-51
2022/04/23 10:19:33;;;;;;;3.05;0.82;;;;;;;;;;1788027;78;26273;-50
2022/04/23 10:22:02;;;;;;;2.20;0.80;;;;;;;;;;1807004;78;26862;-50
2022/04/23 10:24:49;;;;;;;0.80;0.80;;;;;;;;;;1800385;79;26259;-49
2022/04/23 10:27:18;;;;;;;0.70;0.70;;;;;;;;;;1807116;78;26412;-57
2022/04/23 10:29:50;;;;;;;0.80;0.80;;;;;;;;;;1778186;79;26397;-53
2022/04/23 10:32:24;;;;;;;2.37;0.80;;;;;;;;;;1779967;78;26317;-52
2022/04/23 10:34:48;;;;;;;0.80;0.80;;;;;;;;;;1800102;79;26727;-52
2022/04/23 10:37:17;;;;;;;0.80;0.80;;;;;;;;;;1802478;79;26303;-47
2022/04/23 10:39:45;;;;;;;0.75;0.75;;;;;;;;;;1822025;78;26304;-53
2022/04/23 10:42:15;;;;;;;0.70;0.70;;;;;;;;;;1811531;78;26346;-52
2022/04/23 10:44:43;;;;;;;0.60;0.60;;;;;;;;;;1823831;78;26311;-53
2022/04/23 10:47:29;;;;;;;1.45;1.02;;;;;;;;;;1773292;81;26321;-50
2022/04/23 10:50:02;;;;;;;0.70;0.70;;;;;;;;;;1796293;78;26369;-53
2022/04/23 10:52:35;;;;;;;0.80;0.80;;;;;;;;;;1791313;79;26688;-53
2022/04/23 10:55:03;;;;;;;0.80;0.80;;;;;;;;;;1801550;79;26751;-52
2022/04/23 10:57:30;;;;;;;0.82;0.80;;;;;;;;;;1802759;79;26255;-47
2022/04/23 10:59:59;;;;;;;0.70;0.70;;;;;;;;;;1802671;79;25692;-57
2022/04/23 11:02:28;;;;;;;0.80;0.72;;;;;;;;;;1800566;79;26708;-51
2022/04/23 11:13:19;;;;;;;0.78;0.78;;;;;;;;;;1776567;79;27232;-47
2022/04/23 11:16:04;;;;;;;1.35;0.82;;;;;;;;;;1775124;79;26295;-50
2022/04/23 11:18:33;;;;;;;0.70;0.70;;;;;;;;;;1825220;78;26296;-51
2022/04/23 11:21:08;;;;;;;0.78;0.78;;;;;;;;;;1825186;78;26363;-53
2022/04/23 11:23:37;;;;;;;0.55;0.55;;;;;;;;;;1825099;78;26730;-53
2022/04/23 11:26:06;;;;;;;1.75;0.70;;;;;;;;;;1802794;78;26647;-49
2022/04/23 11:28:33;;;;;;;1.72;0.88;;;;;;;;;;1815274;78;26774;-49
2022/04/23 11:31:02;;;;;;;0.72;0.72;;;;;;;;;;1799715;79;26820;-53
2022/04/23 11:33:29;;;;;;;0.62;0.62;;;;;;;;;;1797857;79;26224;-51
2022/04/23 11:35:58;;;;;;;0.50;0.50;;;;;;;;;;1809186;79;26897;-50
2022/04/23 11:38:26;;;;;;;0.55;0.55;;;;;;;;;;1809163;78;26302;-50
2022/04/23 11:40:54;;;;;;;0.60;0.60;;;;;;;;;;1809297;79;26263;-49
2022/04/23 11:43:36;;;;;;;0.75;0.60;;;;;;;;;;1809432;79;26287;-54
2022/04/23 11:46:06;;;;;;;0.70;0.70;;;;;;;;;;1795357;79;26392;-49
2022/04/23 11:48:40;;;;;;;0.50;0.50;;;;;;;;;;1795815;79;26290;-51
2022/04/23 11:51:12;;;;;;;0.60;0.60;;;;;;;;;;1806815;78;26806;-49
2022/04/23 11:53:52;;;;;;;0.60;0.60;;;;;;;;;;1808467;79;26347;-48
2022/04/23 11:56:28;;;;;;;0.55;0.55;;;;;;;;;;1790607;78;26294;-51
2022/04/23 11:58:56;;;;;;;0.60;0.60;;;;;;;;;;1779870;80;26344;-50
2022/04/23 12:01:25;;;;;;;0.60;0.60;;;;;;;;;;1805952;78;26327;-48
2022/04/23 12:03:53;;;;;;;0.50;0.50;;;;;;;;;;1828145;78;26359;-51
2022/04/23 12:06:21;;;;;;;0.60;0.60;;;;;;;;;;1783657;78;27874;-50
2022/04/23 12:08:48;;;;;;;0.42;0.42;;;;;;;;;;1803930;79;26369;-51
2022/04/23 12:11:20;;;;;;;0.47;0.47;;;;;;;;;;1785307;79;26362;-53
2022/04/23 12:13:48;;;;;;;0.50;0.50;;;;;;;;;;1813054;78;26293;-50
2022/04/23 12:16:17;;;;;;;0.50;0.50;;;;;;;;;;1779946;78;26274;-50
2022/04/23 12:18:46;;;;;;;0.50;0.50;;;;;;;;;;1788945;78;26392;-55
2022/04/23 12:21:14;;;;;;;0.60;0.60;;;;;;;;;;1786202;79;26305;-52
2022/04/23 12:23:41;;;;;;;0.55;0.55;;;;;;;;;;1793222;78;26243;-54
2022/04/23 12:26:09;;;;;;;0.45;0.45;;;;;;;;;;1788686;79;26797;-48
2022/04/23 12:42:34;;;;;;;0.47;0.47;;;;;;;;;;1797352;79;26324;-55
2022/04/23 12:44:58;;;;;;;0.50;0.50;;;;;;;;;;1802413;79;26378;-49
2022/04/23 12:47:35;;;;;;;0.50;0.50;;;;;;;;;;1803624;78;26846;-54
2022/04/23 12:50:07;;;;;;;0.45;0.45;;;;;;;;;;1803520;79;26314;-50
2022/04/23 12:52:38;;;;;;;0.40;0.40;;;;;;;;;;1803604;79;26294;-52
2022/04/23 12:55:19;;;;;;;0.40;0.40;;;;;;;;;;1801233;78;26833;-55
2022/04/23 12:57:47;;;;;;;0.40;0.40;;;;;;;;;;1797546;79;26385;-55
2022/04/23 13:00:16;;;;;;;0.50;0.50;;;;;;;;;;1797132;79;26335;-52
2022/04/23 13:02:48;;;;;;;0.55;0.55;;;;;;;;;;1799498;79;26323;-49
2022/04/23 13:05:14;;;;;;;0.50;0.50;;;;;;;;;;1801313;79;26334;-49
2022/04/23 13:10:26;;;;;;;0.40;0.40;;;;;;;;;;1789157;79;27227;-53
2022/04/23 13:12:54;;;;;;;0.40;0.40;;;;;;;;;;1819476;78;26289;-49
2022/04/23 13:15:22;;;;;;;0.50;0.50;;;;;;;;;;1819718;78;26740;-48
2022/04/23 13:17:51;;;;;;;0.70;0.40;;;;;;;;;;1801333;78;26373;-55
2022/04/23 13:20:23;;;;;;;0.45;0.45;;;;;;;;;;1797650;78;26280;-48
2022/04/23 13:22:48;;;;;;;0.40;0.40;;;;;;;;;;1798337;78;26747;-51
2022/04/23 13:25:16;;;;;;;0.40;0.40;;;;;;;;;;1802483;79;26326;-48
2022/04/23 13:27:44;;;;;;;0.40;0.40;;;;;;;;;;1802207;79;26323;-50
2022/04/23 13:30:12;;;;;;;0.40;0.40;;;;;;;;;;1799882;78;26694;-47
2022/04/23 13:32:40;;;;;;;0.45;0.45;;;;;;;;;;1798777;80;26224;-51
2022/04/23 13:35:08;;;;;;;0.40;0.40;;;;;;;;;;1797395;80;26487;-51
2022/04/23 13:37:36;;;;;;;0.30;0.30;;;;;;;;;;1798214;78;26305;-55
2022/04/23 13:40:04;;;;;;;0.40;0.40;;;;;;;;;;1793155;78;26298;-53
2022/04/23 13:42:32;;;;;;;0.50;0.50;;;;;;;;;;1787105;78;26294;-55
2022/04/23 13:45:00;;;;;;;0.30;0.30;;;;;;;;;;1788991;78;26318;-47
2022/04/23 13:47:28;;;;;;;0.50;0.50;;;;;;;;;;1798294;80;26290;-52
2022/04/23 13:49:55;;;;;;;0.30;0.30;;;;;;;;;;1799228;80;26242;-53
2022/04/23 13:52:22;;;;;;;0.40;0.40;;;;;;;;;;1797904;80;26693;-47
2022/04/23 13:54:50;;;;;;;0.60;0.60;;;;;;;;;;1793163;78;27114;-54
2022/04/23 13:57:18;;;;;;;0.45;0.45;;;;;;;;;;1768823;80;27162;-52
2022/04/23 13:59:45;;;;;;;0.30;0.30;;;;;;;;;;1768555;81;26329;-51
2022/04/23 14:10:28;;;;;;;0.20;0.20;;;;;;;;;;1785456;80;26374;-53
2022/04/23 14:12:55;;;;;;;0.30;0.30;;;;;;;;;;1797922;80;26290;-52
2022/04/23 14:15:23;;;;;;;0.40;0.40;;;;;;;;;;1798524;78;26290;-49
2022/04/23 14:17:50;;;;;;;0.40;0.40;;;;;;;;;;1797065;78;26817;-56
2022/04/23 14:20:17;;;;;;;0.40;0.40;;;;;;;;;;1794012;80;26729;-53
2022/04/23 14:22:45;;;;;;;0.30;0.30;;;;;;;;;;1791581;79;26345;-55
2022/04/23 14:25:13;;;;;;;0.40;0.40;;;;;;;;;;1796012;79;26365;-52
2022/04/23 14:27:41;;;;;;;0.33;0.33;;;;;;;;;;1793028;78;26310;-50
2022/04/23 14:30:09;;;;;;;0.40;0.40;;;;;;;;;;1795766;80;26344;-56
2022/04/23 14:32:36;;;;;;;0.55;0.40;;;;;;;;;;1797900;80;25737;-53
2022/04/23 14:35:04;;;;;;;0.57;0.57;;;;;;;;;;1796015;80;26750;-51
2022/04/23 14:37:33;;;;;;;1.00;1.00;;;;;;;;;;1798001;78;26637;-53
2022/04/23 14:40:00;;;;;;;1.30;1.20;;;;;;;;;;1796754;78;26321;-52
2022/04/23 14:42:28;;;;;;;2.17;2.08;;;;;;;;;;1793008;79;26848;-54
2022/04/23 14:44:55;;;;;;;3.30;3.00;;;;;;;;;;1793393;79;26303;-55
2022/04/23 14:47:23;;;;;;;4.22;3.83;;;;;;;;;;1798221;80;26368;-50
2022/04/23 14:49:50;;;;;;;6.85;5.20;;;;;;;;;;1798764;78;26367;-53
2022/04/23 14:55:04;;;;;;;10.32;6.95;;;;;;;;;;1794245;80;26309;-47
2022/04/23 14:57:31;;;;;;;11.33;7.95;;;;;;;;;;1798286;80;26302;-51
2022/04/23 14:59:59;;;;;;;15.35;8.83;;;;;;;;;;1791640;80;26274;-52
2022/04/23 15:02:26;;;;;;;14.20;9.55;;;;;;;;;;1797879;78;26282;-51
2022/04/23 15:04:54;;;;;;;16.10;10.18;;;;;;;;;;1798111;80;26773;-53
2022/04/23 15:07:21;;;;;;;17.75;10.20;;;;;;;;;;1794156;80;26750;-49
2022/04/23 15:09:49;;;;;;;17.12;10.48;;;;;;;;;;1794791;80;26907;-53
2022/04/23 15:12:16;;;;;;;16.02;10.48;;;;;;;;;;1797968;79;26289;-53
2022/04/23 15:14:44;;;;;;;16.57;10.53;;;;;;;;;;1799561;78;26289;-55
2022/04/23 15:17:11;;;;;;;17.80;11.03;;;;;;;;;;1769723;81;26293;-51
2022/04/23 15:19:38;;;;;;;15.95;11.33;;;;;;;;;;1779518;80;26383;-52
2022/04/23 15:22:06;;;;;;;17.37;11.40;;;;;;;;;;1791190;80;26743;-48
2022/04/23 15:24:33;;;;;;;17.70;11.68;;;;;;;;;;1797933;78;26910;-56
2022/04/23 15:27:00;;;;;;;18.15;12.05;;;;;;;;;;1793801;80;26734;-51
2022/04/23 15:29:28;;;;;;;17.12;11.35;;;;;;;;;;1800843;79;26806;-50
2022/04/23 15:31:56;;;;;;;18.95;11.80;;;;;;;;;;1800629;79;26381;-52
2022/04/23 15:34:23;;;;;;;17.55;11.78;;;;;;;;;;1801550;78;26242;-52
2022/04/23 15:36:50;;;;;;;17.98;11.63;;;;;;;;;;1796873;79;26432;-50
2022/04/23 15:39:17;;;;;;;16.55;11.48;;;;;;;;;;1798028;78;26278;-53